Tiempo atmosférico en la estación meteorológica de Blanes, Girona (60 m.)



Fecha
DESCASC
Temp. máxima en grados centígrados (hora)
DESCASC
Temp. mínima en grados centígrados (hora)
DESCASC
Temp. media en grados centígrados
DESCASC
Racha de viento máxima en m/sg (hora)
DESCASC
Velocidad máxima media en intervalos de 10 minutos(hora)
DESCASC
Precipitaciones diarias en mm
DESCASC
Precipitaciones de 00:00 a 06:00 en mm
DESCASC
Precipitaciones de 06:00 a 12:00 en mm
DESCASC
Precipitaciones de 12:00 a 18:00 en mm
DESCASC
Precipitaciones de 18:00 a 24:00 en mm
DESCASC
18-01-2018 14.9 (13:00) 9.2 (23:59) 12 10.56 (13:50) 6.11 (14:00) 0.6 0 0.4 0.2 0
17-01-2018 14.6 (11:00) 10 (06:50) 12.3 6.94 (09:00) 4.72 (03:10) 0 0 0 0 0
16-01-2018 17.1 (14:50) 6.5 (07:50) 11.8 13.61 (03:30) 3.89 (03:30) 0 0 0 0 0
15-01-2018 14.2 (13:10) 6.8 (08:20) 10.5 10.56 (17:30) 6.39 (15:40) 0 0 0 0 0
14-01-2018 12.3 (14:20) 8.1 (00:00) 10.2 10 (02:00) 4.72 (02:10) 3.4 3.4 0 0 0
13-01-2018 13.9 (12:40) 6.1 (00:00) 10 10 (12:50) 5.28 (23:00) 0 0 0 0 0
12-01-2018 14.5 (14:10) 4.6 (00:00) 9.5 8.33 (07:20) 6.39 (07:20) 0 0 0 0 0
11-01-2018 12.3 (14:10) 7.1 (00:00) 9.7 8.61 (03:00) 4.44 (02:30) 0 0 0 0 0
10-01-2018 13.9 (12:40) 7.8 (00:00) 10.8 9.72 (02:30) 5 (10:40) 0 0 0 0 0
09-01-2018 13.9 (14:00) 6 (00:00) 9.9 13.06 (16:20) 6.11 (14:30) 0 0 0 0 0
08-01-2018 13 (13:30) 6.1 (00:00) 9.5 8.61 (06:30) 5.83 (06:50) 0 0 0 0 0
07-01-2018 14 (01:30) 8 (00:00) 11 10.28 (16:40) 6.39 (19:00) 16.8 0 10.6 4.8 1.4
06-01-2018 15.2 (13:30) 9.6 (00:00) 12.4 14.17 (20:30) 7.78 (18:40) 0 0 0 0 0
05-01-2018 19.1 (12:30) 11.4 (00:00) 15.3 15.56 (13:30) 7.5 (13:30) 0 0 0 0 0
04-01-2018 19 (12:20) 11.7 (03:20) 15.3 6.94 (10:40) 4.44 (01:50) 0 0 0 0 0
03-01-2018 19.5 (13:20) 11.4 (00:00) 15.4 8.61 (07:30) 5.56 (04:10) 0 0 0 0 0
02-01-2018 16.4 (14:00) 8 (00:00) 12.2 7.22 (14:20) 4.72 (10:20) 0 0 0 0 0
01-01-2018 15.9 (12:20) 10.1 (00:00) 13 15 (18:00) 8.33 (18:10) 0 0 0 0 0
31-12-2017 16.3 (12:00) 9.6 (00:00) 12.9 15.28 (18:10) 7.78 (18:10) 0 0 0 0 0
30-12-2017 19.6 (14:50) 8.9 (00:00) 14.3 8.61 (05:30) 4.72 (04:20) 0 0 0 0 0
29-12-2017 11.6 (15:30) 4.2 (00:00) 7.9 7.5 (11:00) 5.28 (11:10) 0 0 0 0 0
28-12-2017 11.1 (15:00) 3.9 (00:00) 7.5 8.06 (05:30) 5 (20:50) 0 0 0 0 0
27-12-2017 14.1 (12:20) 7.3 (00:00) 10.7 19.72 (02:20) 8.61 (01:10) 0 0 0 0 0
26-12-2017 16 (13:10) 8.4 (00:00) 12.2 12.78 (23:10) 6.11 (23:59) 0 0 0 0 0
25-12-2017 16.5 (14:30) 8.2 (00:00) 12.3 11.11 (13:40) 6.39 (11:50) 0 0 0 0 0
24-12-2017 13.9 (14:30) 6 (00:00) 9.9 8.89 (08:30) 5 (08:30) 0 0 0 0 0
23-12-2017 15.9 (14:10) 7.9 (00:00) 11.9 6.67 (06:50) 5 (03:30) 0 0 0 0 0
22-12-2017 17 (13:10) 8 (00:00) 12.5 7.22 (01:40) 5 (01:40) 0 0 0 0 0

Gráficas

Temp. máximas Temp. mínimas Temp. medias Precipitaciones Rachas de viento máximas Velocidades máximas media en intervalos de 10 minutos

Datos horarios

Fecha y hora oficial Temperatura (ºC) Velocidad del viento (km/h) Dirección del viento Racha (km/h) Dirección de racha Precipitación (mm) Presión (hPa) Tendencia (hPa) Humedad (%)
2018-01-20 23:00:00 12.2 6 Noroeste 15 Noroeste 0 -- -- 63
2018-01-20 22:00:00 12.2 11 Noroeste 19 Noroeste 0 -- -- 69
2018-01-20 21:00:00 12.2 4 Nordeste 9 Norte 0 -- -- 67
2018-01-20 20:00:00 12.3 2 Noroeste 6 Norte 0 -- -- 67
2018-01-20 19:00:00 12.9 3 Este 6 Sudoeste 0 -- -- 63
2018-01-20 18:00:00 13.6 2 Sudeste 15 Oeste 0 -- -- 67
2018-01-20 17:00:00 13.9 6 Sudoeste 32 Sudoeste 0 -- -- 73
2018-01-20 16:00:00 13.8 14 Sur 32 Sur 0 -- -- 72
2018-01-20 15:00:00 12.9 23 Sur 43 Sudoeste 0 -- -- 69
2018-01-20 14:00:00 13.5 28 Sur 44 Sur 0 -- -- 65
2018-01-20 13:00:00 13.6 15 Sur 33 Sudoeste 0 -- -- 61
2018-01-20 12:00:00 13.6 13 Sur 26 Sur 0 -- -- 66
2018-01-20 11:00:00 13 5 Sur 12 Sudoeste 0 -- -- 74
2018-01-20 10:00:00 11.6 6 Sudoeste 13 Noroeste 0 -- -- 76
2018-01-20 09:00:00 9.3 12 Noroeste 20 Noroeste 0 -- -- 78
2018-01-20 08:00:00 8.4 15 Noroeste 23 Noroeste 0 -- -- 80
2018-01-20 07:00:00 8.6 14 Noroeste 20 Noroeste 0 -- -- 81
2018-01-20 06:00:00 9.8 8 Noroeste 12 Noroeste 0 -- -- 80
2018-01-20 05:00:00 9.5 4 Norte 14 Noroeste 0 -- -- 83
2018-01-20 04:00:00 10.3 11 Noroeste 15 Noroeste 0 -- -- 81
2018-01-20 03:00:00 10.6 8 Noroeste 12 Noroeste 0 -- -- 81
2018-01-20 02:00:00 10.6 9 Noroeste 12 Noroeste 0 -- -- 82
2018-01-20 01:00:00 10.9 4 Sudoeste 9 Oeste 0 -- -- 81
2018-01-20 00:00:00 11.6 5 Sudoeste 13 Oeste 0 -- -- 79
2018-01-19 23:00:00 11.4 8 Noroeste 13 Oeste 0 -- -- 79
2018-01-19 22:00:00 11.4 9 Noroeste 16 Noroeste 0 -- -- 79
2018-01-19 21:00:00 11.3 10 Noroeste 14 Noroeste 0 -- -- 81
2018-01-19 20:00:00 11.7 5 Oeste 14 Noroeste 0 -- -- 78
2018-01-19 19:00:00 11.8 8 Noroeste 12 Noroeste 0 -- -- 78
2018-01-19 18:00:00 11.6 6 Noroeste 9 Noroeste 0 -- -- 81
2018-01-19 17:00:00 12 5 Nordeste 16 Este 0 -- -- 84
2018-01-19 16:00:00 12.3 4 Este 17 Este 0 -- -- 79
2018-01-19 15:00:00 12.5 5 Este 16 Este 0 -- -- 79
2018-01-19 14:00:00 13.5 3 Este 6 Este 0 -- -- 73
2018-01-19 13:00:00 12.6 4 Nordeste 11 Noroeste 0 -- -- 73
2018-01-19 12:00:00 11.6 2 Noroeste 5 Noroeste 0 -- -- 76
2018-01-19 11:00:00 10.2 0 Calma 12 Noroeste 0 -- -- 78
2018-01-19 10:00:00 8.9 9 Noroeste 13 Noroeste 0 -- -- 82
2018-01-19 09:00:00 8.2 10 Noroeste 21 Norte 0 -- -- 79
2018-01-19 08:00:00 8.1 9 Noroeste 14 Noroeste 0 -- -- 84
2018-01-19 07:00:00 8.4 10 Noroeste 13 Noroeste 0 -- -- 84
2018-01-19 06:00:00 8.2 6 Norte 10 Norte 0 -- -- 84
2018-01-19 05:00:00 8.2 4 Nordeste 14 Noroeste 0 -- -- 84
2018-01-19 04:00:00 7.6 10 Noroeste 19 Noroeste 0 -- -- 81
2018-01-19 03:00:00 7.5 15 Norte 22 Norte 0 -- -- 82
2018-01-19 02:00:00 8.1 9 Norte 13 Noroeste 0 -- -- 76
2018-01-19 01:00:00 8.5 6 Norte 12 Noroeste 0 -- -- 73
2018-01-19 00:00:00 9.2 9 Noroeste 14 Norte 0 -- -- 67
2018-01-18 23:00:00 10.4 5 Noroeste 19 Noroeste 0 -- -- 61
2018-01-18 22:00:00 10.5 13 Noroeste 21 Noroeste 0 -- -- 60
2018-01-18 21:00:00 10.4 4 Oeste 12 Noroeste 0 -- -- 66
2018-01-18 20:00:00 10.6 2 Norte 11 Noroeste 0 -- -- 70
2018-01-18 19:00:00 11.7 6 Noroeste 20 Oeste 0 -- -- 67
2018-01-18 18:00:00 12.1 9 Oeste 23 Sudoeste 0 -- -- 66
2018-01-18 17:00:00 13.1 9 Oeste 27 Oeste 0 -- -- 67
2018-01-18 16:00:00 13.2 12 Sudoeste 36 Sur 0 -- -- 66
2018-01-18 15:00:00 13.7 22 Sur 37 Sur 0 -- -- 64
2018-01-18 14:00:00 14.1 22 Sur 38 Sudoeste 0 -- -- 64
2018-01-18 13:00:00 14.9 10 Sur 22 Sur 0.2 -- -- 67
2018-01-18 12:00:00 13 8 Oeste 15 Norte 0 -- -- 77
2018-01-18 11:00:00 12 7 Noroeste 15 Norte 0 -- -- 89
2018-01-18 10:00:00 10.8 11 Norte 15 Noroeste 0 -- -- 95
2018-01-18 09:00:00 10.2 4 Norte 14 Noroeste 0.4 -- -- 92
2018-01-18 08:00:00 11.1 7 Oeste 14 Sudoeste 0 -- -- 83
2018-01-18 07:00:00 10.9 9 Sudoeste 18 Oeste 0 -- -- 79
2018-01-18 06:00:00 10.8 8 Sudoeste 13 Sudoeste 0 -- -- 79
2018-01-18 05:00:00 11.2 3 Sudoeste 15 Sudoeste 0 -- -- 77
2018-01-18 04:00:00 11.6 7 Oeste 17 Oeste 0 -- -- 77
2018-01-18 03:00:00 11.7 7 Oeste 19 Oeste 0 -- -- 76
2018-01-18 02:00:00 11 8 Noroeste 22 Norte 0 -- -- 81
2018-01-18 01:00:00 11.4 12 Noroeste 17 Noroeste 0 -- -- 78
2018-01-18 00:00:00 11.5 7 Oeste 12 Oeste 0 -- -- 81
2018-01-17 23:00:00 11.3 4 Sur 10 Sudoeste 0 -- -- 82
2018-01-17 22:00:00 11.8 6 Sudoeste 19 Noroeste 0 -- -- 79
2018-01-17 21:00:00 12.3 10 Oeste 19 Noroeste 0 -- -- 78
2018-01-17 20:00:00 12.4 6 Sudoeste 14 Sudoeste 0 -- -- 78
2018-01-17 19:00:00 12.4 3 Sudeste 9 Sur 0 -- -- 81
2018-01-17 18:00:00 12.4 5 Sudoeste 10 Sudoeste 0 -- -- 77
2018-01-17 17:00:00 13.6 4 Sudoeste 7 Sudoeste 0 -- -- 76
2018-01-17 16:00:00 13.7 3 Sur 5 Sur 0 -- -- 76
2018-01-17 15:00:00 12.9 4 Este 16 Nordeste 0 -- -- 80
2018-01-17 14:00:00 14 4 Nordeste 14 Sur 0 -- -- 75
2018-01-17 13:00:00 14.5 5 Sudeste 17 Este 0 -- -- 74
2018-01-17 12:00:00 14.5 10 Este 18 Este 0 -- -- 73
2018-01-17 11:00:00 14.6 7 Este 16 Este 0 -- -- 73
2018-01-17 10:00:00 12.9 9 Nordeste 21 Este 0 -- -- 75
2018-01-17 09:00:00 12 13 Nordeste 25 Nordeste 0 -- -- 69
2018-01-17 08:00:00 10.2 5 Noroeste 17 Norte 0 -- -- 76
2018-01-17 07:00:00 10.1 6 Noroeste 12 Norte 0 -- -- 76
2018-01-17 06:00:00 11.1 5 Norte 17 Norte 0 -- -- 72
2018-01-17 05:00:00 11.5 7 Norte 19 Noroeste 0 -- -- 71
2018-01-17 04:00:00 12.5 5 Noroeste 23 Noroeste 0 -- -- 68
2018-01-17 03:00:00 11.2 16 Noroeste 24 Noroeste 0 -- -- 75
2018-01-17 02:00:00 11.1 7 Oeste 13 Noroeste 0 -- -- 75
2018-01-17 01:00:00 11.7 8 Noroeste 13 Noroeste 0 -- -- 75
2018-01-17 00:00:00 11.3 3 Oeste 13 Noroeste 0 -- -- 76
2018-01-16 23:00:00 12.2 2 Sudoeste 19 Oeste 0 -- -- 72
2018-01-16 22:00:00 13.1 9 Oeste 18 Oeste 0 -- -- 68
2018-01-16 21:00:00 13.2 5 Sudoeste 17 Oeste 0 -- -- 64
2018-01-16 20:00:00 13.4 6 Oeste 15 Noroeste 0 -- -- 60
2018-01-16 19:00:00 13.8 9 Noroeste 14 Noroeste 0 -- -- 57
2018-01-16 18:00:00 12.8 4 Oeste 7 Este 0 -- -- 62
2018-01-16 17:00:00 14 3 Nordeste 8 Este 0 -- -- 78
2018-01-16 16:00:00 15.5 3 Sudeste 8 Sur 0 -- -- 62
2018-01-16 15:00:00 17 4 Sudoeste 16 Sudoeste 0 -- -- 58
2018-01-16 14:00:00 16.6 8 Sudoeste 14 Sudoeste 0 -- -- 56
2018-01-16 13:00:00 15.6 8 Sur 15 Sur 0 -- -- 56
2018-01-16 12:00:00 13.5 7 Sudoeste 17 Sudoeste 0 -- -- 58
2018-01-16 11:00:00 12.8 6 Sudoeste 12 Sudoeste 0 -- -- 62
2018-01-16 10:00:00 11 4 Sur 8 Sur 0 -- -- 65
2018-01-16 09:00:00 7.8 2 Norte 17 Noroeste 0 -- -- 72
2018-01-16 08:00:00 6.6 9 Oeste 20 Oeste 0 -- -- 77
2018-01-16 07:00:00 7.7 10 Noroeste 21 Noroeste 0 -- -- 71
2018-01-16 06:00:00 8.1 10 Oeste 20 Oeste 0 -- -- 69
2018-01-16 05:00:00 8.7 12 Oeste 28 Sudoeste 0 -- -- 67
2018-01-16 04:00:00 9.2 11 Oeste 49 Oeste 0 -- -- 65
2018-01-16 03:00:00 9.3 8 Oeste 22 Oeste 0 -- -- 65
2018-01-16 02:00:00 9.5 12 Oeste 23 Oeste 0 -- -- 65
2018-01-16 01:00:00 9.6 12 Oeste 23 Sudoeste 0 -- -- 65
2018-01-16 00:00:00 9.1 8 Oeste 22 Sudoeste 0 -- -- 69
2018-01-15 23:00:00 9 11 Oeste 32 Oeste 0 -- -- 68
2018-01-15 22:00:00 8.7 6 Oeste 13 Noroeste 0 -- -- 68
2018-01-15 21:00:00 8.5 9 Noroeste 13 Norte 0 -- -- 65
2018-01-15 20:00:00 8.9 8 Noroeste 28 Sudoeste 0 -- -- 66
2018-01-15 19:00:00 9.8 14 Oeste 33 Sudoeste 0 -- -- 65
2018-01-15 18:00:00 10.5 13 Oeste 38 Oeste 0 -- -- 63
2018-01-15 17:00:00 11.2 15 Sur 34 Sudoeste 0 -- -- 70
2018-01-15 16:00:00 11.9 17 Sur 37 Sur 3.6 -- -- 67
2018-01-15 15:00:00 13.8 15 Sur 30 Sur 0 -- -- 63
2018-01-15 14:00:00 14.2 17 Sur 27 Sur 0 -- -- 60
2018-01-15 13:00:00 14.1 13 Sudoeste 30 Sudoeste 0 -- -- 61
2018-01-15 12:00:00 12.2 7 Oeste 20 Oeste 0 -- -- 65
2018-01-15 11:00:00 10 11 Noroeste 19 Noroeste 0 -- -- 71
2018-01-15 10:00:00 7.6 15 Noroeste 24 Noroeste 0 -- -- 79
2018-01-15 09:00:00 7.3 16 Noroeste 27 Noroeste 0 -- -- 80
2018-01-15 08:00:00 7.1 17 Noroeste 24 Noroeste 0 -- -- 79
2018-01-15 07:00:00 7.7 14 Noroeste 22 Noroeste 0 -- -- 80
2018-01-15 06:00:00 8.1 9 Noroeste 16 Noroeste 0 -- -- 80
2018-01-15 05:00:00 8.3 7 Noroeste 13 Norte 0 -- -- 81
2018-01-15 04:00:00 8.1 9 Norte 14 Noroeste 0 -- -- 83
2018-01-15 03:00:00 8 6 Norte 18 Noroeste 0 -- -- 82
2018-01-15 02:00:00 8.8 7 Noroeste 13 Noroeste 0 -- -- 79
2018-01-15 01:00:00 9.1 5 Noroeste 9 Noroeste 0 -- -- 78
2018-01-15 00:00:00 8.9 5 Noroeste 12 Noroeste 0 -- -- 78
2018-01-14 23:00:00 8.7 3 Norte 9 Noroeste 0 -- -- 79
2018-01-14 22:00:00 8.7 0 Calma 6 Noroeste 0 -- -- 79
2018-01-14 21:00:00 9.2 4 Noroeste 15 Norte 0 -- -- 75
2018-01-14 20:00:00 9.2 5 Noroeste 10 Norte 0 -- -- 74
2018-01-14 19:00:00 9.6 7 Norte 13 Norte 0 -- -- 77
2018-01-14 18:00:00 10.3 4 Norte 8 Norte 0 -- -- 76
2018-01-14 17:00:00 10.8 6 Norte 10 Norte 0 -- -- 72
2018-01-14 16:00:00 11.3 6 Este 12 Este 0 -- -- 71
2018-01-14 15:00:00 11.4 5 Este 18 Nordeste 0 -- -- 72
2018-01-14 14:00:00 11.7 6 Nordeste 21 Noroeste 0 -- -- 77
2018-01-14 13:00:00 11 6 Noroeste 17 Noroeste 0 -- -- 80
2018-01-14 12:00:00 10.3 6 Norte 21 Oeste 0 -- -- 87
2018-01-14 11:00:00 9.8 10 Noroeste 17 Norte 0 -- -- 93
2018-01-14 10:00:00 8.5 13 Norte 19 Norte 0 -- -- 96
2018-01-14 09:00:00 8.2 12 Noroeste 19 Norte 0 -- -- 96
2018-01-14 08:00:00 8.6 10 Noroeste 13 Noroeste 0 -- -- 96
2018-01-14 07:00:00 8.8 4 Nordeste 9 Este 0 -- -- 95
2018-01-14 06:00:00 9.5 6 Este 21 Sur 2.2 -- -- 94
2018-01-14 05:00:00 9.8 5 Sur 19 Sur 1 -- -- 90
2018-01-14 04:00:00 9.8 0 Calma 20 Oeste 0 -- -- 84
2018-01-14 03:00:00 10.4 9 Oeste 35 Sudoeste 0.2 -- -- 83
2018-01-14 02:00:00 11.5 16 Sur 36 Sudoeste 0 -- -- 88
2018-01-14 01:00:00 11 4 Sudoeste 14 Sur 0 -- -- 89
2018-01-14 00:00:00 11.5 10 Sudoeste 31 Sur 0 -- -- 89
2018-01-13 23:00:00 12.3 19 Sur 32 Sur 0 -- -- 84
2018-01-13 22:00:00 12.2 15 Sur 26 Sur 0 -- -- 80
2018-01-13 21:00:00 12.3 15 Sur 29 Sudoeste 0 -- -- 76
2018-01-13 20:00:00 12 15 Sur 27 Sudoeste 0 -- -- 78
2018-01-13 19:00:00 11.4 9 Sudoeste 17 Sudoeste 0 -- -- 75
2018-01-13 18:00:00 11.4 7 Oeste 16 Oeste 0 -- -- 74
2018-01-13 17:00:00 11.7 8 Sudoeste 30 Sudoeste 0 -- -- 75
2018-01-13 16:00:00 12.3 13 Sudoeste 31 Sudoeste 0 -- -- 71
2018-01-13 15:00:00 12.3 11 Sur 29 Sur 0 -- -- 69
2018-01-13 14:00:00 12.7 10 Sudoeste 31 Sur 0 -- -- 63
2018-01-13 13:00:00 13.6 16 Sur 36 Sudoeste 0 -- -- 61
2018-01-13 12:00:00 13.1 15 Sur 27 Sudoeste 0 -- -- 64
2018-01-13 11:00:00 12.1 7 Sur 13 Sudoeste 0 -- -- 62
2018-01-13 10:00:00 10.9 7 Sudoeste 17 Sudoeste 0 -- -- 59
2018-01-13 09:00:00 7.4 6 Oeste 9 Oeste 0 -- -- 70
2018-01-13 08:00:00 6.4 4 Norte 7 Oeste 0 -- -- 73
2018-01-13 07:00:00 6.6 3 Noroeste 7 Noroeste 0 -- -- 73
2018-01-13 06:00:00 6.6 4 Noroeste 10 Noroeste 0 -- -- 72
2018-01-13 05:00:00 6.5 8 Noroeste 22 Noroeste 0 -- -- 70
2018-01-13 04:00:00 6.3 14 Noroeste 22 Noroeste 0 -- -- 64
2018-01-13 03:00:00 7.1 16 Noroeste 22 Noroeste 0 -- -- 60
2018-01-13 02:00:00 7.5 15 Noroeste 24 Noroeste 0 -- -- 61
2018-01-13 01:00:00 7.8 13 Noroeste 24 Noroeste 0 -- -- 64
2018-01-13 00:00:00 8 15 Noroeste 24 Noroeste 0 -- -- 63
2018-01-12 23:00:00 8.8 12 Noroeste 16 Noroeste 0 -- -- 58
2018-01-12 22:00:00 8.7 0 Calma 4 Oeste 0 -- -- 58
2018-01-12 21:00:00 9.2 4 Norte 12 Noroeste 0 -- -- 57
2018-01-12 20:00:00 10 6 Noroeste 21 Oeste 0 -- -- 58
2018-01-12 19:00:00 10.3 8 Noroeste 19 Oeste 0 -- -- 61
2018-01-12 18:00:00 10.4 8 Oeste 19 Sudoeste 0 -- -- 67
2018-01-12 17:00:00 11.9 10 Sudoeste 21 Sur 0 -- -- 59
2018-01-12 16:00:00 12.5 9 Sudoeste 23 Sur 0 -- -- 50
2018-01-12 15:00:00 13.7 8 Sudoeste 25 Sudoeste 0 -- -- 52
2018-01-12 14:00:00 14.4 10 Sur 17 Sudoeste 0 -- -- 48
2018-01-12 13:00:00 12.9 8 Sudoeste 17 Sudoeste 0 -- -- 54
2018-01-12 12:00:00 10.6 6 Noroeste 21 Noroeste 0 -- -- 60
2018-01-12 11:00:00 9.2 5 Norte 26 Norte 0 -- -- 64
2018-01-12 10:00:00 7.1 19 Norte 27 Norte 0 -- -- 68
2018-01-12 09:00:00 5.9 16 Norte 27 Norte 0 -- -- 69
2018-01-12 08:00:00 5 18 Norte 30 Noroeste 0 -- -- 74
2018-01-12 07:00:00 5.2 20 Norte 27 Norte 0 -- -- 73
2018-01-12 06:00:00 5.9 17 Norte 27 Noroeste 0 -- -- 70
2018-01-12 05:00:00 6.3 16 Noroeste 26 Noroeste 0 -- -- 73
2018-01-12 04:00:00 6.8 17 Noroeste 27 Noroeste 0 -- -- 73
2018-01-12 03:00:00 6.3 16 Noroeste 25 Noroeste 0 -- -- 77
2018-01-12 02:00:00 6.8 13 Noroeste 23 Noroeste 0 -- -- 74
2018-01-12 01:00:00 6.5 16 Noroeste 24 Noroeste 0 -- -- 77
2018-01-12 00:00:00 7.2 14 Noroeste 19 Noroeste 0 -- -- 73
2018-01-11 23:00:00 7.9 4 Noroeste 17 Norte 0 -- -- 75
2018-01-11 22:00:00 8.4 7 Norte 19 Noroeste 0 -- -- 72
2018-01-11 21:00:00 9.1 12 Noroeste 17 Noroeste 0 -- -- 70
2018-01-11 20:00:00 9.7 9 Noroeste 14 Noroeste 0 -- -- 67
2018-01-11 19:00:00 9.5 5 Oeste 8 Sudoeste 0 -- -- 69
2018-01-11 18:00:00 9.9 4 Oeste 6 Oeste 0 -- -- 70
2018-01-11 17:00:00 11.1 2 Sudoeste 7 Sudoeste 0 -- -- 68
2018-01-11 16:00:00 11.8 3 Sur 7 Sudoeste 0 -- -- 65
2018-01-11 15:00:00 12 3 Sudeste 8 Sur 0 -- -- 65
2018-01-11 14:00:00 12.2 4 Sur 9 Este 0 -- -- 69
2018-01-11 13:00:00 11.6 3 Sudeste 6 Sudeste 0 -- -- 69
2018-01-11 12:00:00 11.7 2 Nordeste 5 Nordeste 0 -- -- 67
2018-01-11 11:00:00 9.7 3 Noroeste 19 Noroeste 0 -- -- 71
2018-01-11 10:00:00 8.9 13 Noroeste 19 Noroeste 0 -- -- 73
2018-01-11 09:00:00 8.6 5 Norte 15 Noroeste 0 -- -- 77
2018-01-11 08:00:00 8.8 9 Noroeste 14 Noroeste 0 -- -- 75
2018-01-11 07:00:00 8.7 7 Noroeste 21 Noroeste 0 -- -- 77
2018-01-11 06:00:00 8.4 12 Noroeste 20 Noroeste 0 -- -- 80
2018-01-11 05:00:00 8.6 12 Noroeste 24 Noroeste 0 -- -- 79
2018-01-11 04:00:00 8.7 11 Noroeste 25 Norte 0 -- -- 77
2018-01-11 03:00:00 9.1 13 Norte 31 Norte 0 -- -- 71
2018-01-11 02:00:00 9.8 6 Este 20 Noroeste 0 -- -- 64
2018-01-11 01:00:00 9.9 6 Oeste 8 Oeste 0 -- -- 65
2018-01-11 00:00:00 9.8 4 Nordeste 10 Oeste 0 -- -- 66
2018-01-10 23:00:00 10.2 3 Oeste 12 Noroeste 0 -- -- 60
2018-01-10 22:00:00 10.1 5 Oeste 16 Oeste 0 -- -- 60
2018-01-10 21:00:00 10.4 9 Noroeste 29 Noroeste 0 -- -- 58
2018-01-10 20:00:00 10.3 9 Noroeste 18 Noroeste 0 -- -- 59
2018-01-10 19:00:00 10 5 Oeste 6 Oeste 0 -- -- 64
2018-01-10 18:00:00 10.3 0 Calma 8 Este 0 -- -- 64
2018-01-10 17:00:00 11.9 3 Nordeste 11 Sudoeste 0 -- -- 62
2018-01-10 16:00:00 12.5 6 Sur 11 Sur 0 -- -- 61
2018-01-10 15:00:00 13.1 4 Este 9 Sudeste 0 -- -- 63
2018-01-10 14:00:00 13.1 6 Sudeste 10 Sudeste 0 -- -- 63
2018-01-10 13:00:00 13.3 5 Sudeste 10 Sur 0 -- -- 55
2018-01-10 12:00:00 13 6 Sur 9 Sur 0 -- -- 56
2018-01-10 11:00:00 10 8 Norte 23 Noroeste 0 -- -- 58
2018-01-10 10:00:00 8.5 16 Noroeste 24 Noroeste 0 -- -- 60
2018-01-10 09:00:00 7.9 10 Noroeste 14 Noroeste 0 -- -- 60
2018-01-10 08:00:00 8.3 7 Noroeste 18 Noroeste 0 -- -- 59
2018-01-10 07:00:00 8.6 5 Noroeste 9 Oeste 0 -- -- 61
2018-01-10 06:00:00 8.8 3 Oeste 8 Norte 0 -- -- 59
2018-01-10 05:00:00 9.6 4 Norte 26 Oeste 0 -- -- 53
2018-01-10 04:00:00 9.3 14 Oeste 23 Oeste 0 -- -- 55
2018-01-10 03:00:00 9.9 10 Oeste 35 Sudoeste 0 -- -- 53
2018-01-10 02:00:00 9.6 4 Sudoeste 19 Sudoeste 0 -- -- 53
2018-01-10 01:00:00 10.1 6 Oeste 26 Sudoeste 0 -- -- 50
2018-01-10 00:00:00 10.1 8 Oeste 33 Sudoeste 0 -- -- 49
2018-01-09 23:00:00 10.2 19 Sudoeste 37 Oeste 0 -- -- 50
2018-01-09 22:00:00 10 14 Oeste 33 Sudoeste 0 -- -- 49
2018-01-09 21:00:00 10.8 17 Sudoeste 35 Sudoeste 0 -- -- 58
2018-01-09 20:00:00 10.4 12 Sudoeste 25 Sudoeste 0 -- -- 54
2018-01-09 19:00:00 10.7 11 Oeste 25 Sudoeste 0 -- -- 52
2018-01-09 18:00:00 11.6 12 Oeste 31 Oeste 0 -- -- 64
2018-01-09 17:00:00 12 11 Sudoeste 47 Sudoeste 0 -- -- 57
2018-01-09 16:00:00 12.4 15 Sudoeste 43 Sudoeste 0 -- -- 56
2018-01-09 15:00:00 13.6 17 Sur 37 Sur 0 -- -- 54
2018-01-09 14:00:00 13.9 17 Sur 33 Sur 0 -- -- 53
2018-01-09 13:00:00 13 14 Sudoeste 35 Sudoeste 0 -- -- 54
2018-01-09 12:00:00 12 15 Sudoeste 38 Sudoeste 0 -- -- 58
2018-01-09 11:00:00 10.5 10 Sudoeste 24 Sudoeste 0 -- -- 62
2018-01-09 10:00:00 8.5 5 Sudoeste 21 Oeste 0 -- -- 65
2018-01-09 09:00:00 6.2 8 Sudoeste 19 Sudoeste 0 -- -- 77
2018-01-09 08:00:00 6.3 6 Oeste 14 Noroeste 0 -- -- 79
2018-01-09 07:00:00 6.1 8 Noroeste 17 Noroeste 0 -- -- 80
2018-01-09 06:00:00 6.3 11 Noroeste 18 Noroeste 0 -- -- 80
2018-01-09 05:00:00 6.7 14 Noroeste 23 Noroeste 0 -- -- 82
2018-01-09 04:00:00 8.4 7 Noroeste 15 Oeste 0 -- -- 80
2018-01-09 03:00:00 8.9 8 Sudoeste 13 Sudoeste 0 -- -- 80
2018-01-09 02:00:00 9.4 5 Sudoeste 11 Noroeste 0 -- -- 80
2018-01-09 01:00:00 9.4 9 Noroeste 15 Oeste 0 -- -- 78
2018-01-09 00:00:00 9.5 6 Noroeste 9 Noroeste 0 -- -- 88
2018-01-08 23:00:00 9.8 2 Nordeste 5 Noroeste 0 -- -- 87
2018-01-08 22:00:00 10.3 3 Noroeste 13 Noroeste 0 -- -- 81
2018-01-08 21:00:00 10.4 9 Noroeste 14 Noroeste 0 -- -- 79
2018-01-08 20:00:00 10.7 9 Noroeste 21 Noroeste 0 -- -- 77
2018-01-08 19:00:00 11 9 Noroeste 18 Noroeste 0 -- -- 75
2018-01-08 18:00:00 11.4 3 Oeste 21 Nordeste 0 -- -- 72
2018-01-08 17:00:00 12.1 7 Norte 25 Nordeste 0 -- -- 69
2018-01-08 16:00:00 12.5 12 Norte 25 Norte 0 -- -- 71
2018-01-08 15:00:00 12.6 8 Norte 26 Nordeste 0 -- -- 69
2018-01-08 14:00:00 12.8 9 Norte 24 Norte 0 -- -- 67
2018-01-08 13:00:00 11.1 8 Norte 23 Norte 0 -- -- 78
2018-01-08 12:00:00 9.8 12 Norte 27 Norte 0 -- -- 75
2018-01-08 11:00:00 9 18 Norte 26 Norte 0 -- -- 79
2018-01-08 10:00:00 8.2 21 Norte 29 Norte 0 -- -- 81
2018-01-08 09:00:00 6.9 20 Norte 30 Norte 0 -- -- 87
2018-01-08 08:00:00 6.6 18 Norte 27 Norte 0 -- -- 87
2018-01-08 07:00:00 6.2 19 Norte 31 Noroeste 0 -- -- 88
2018-01-08 06:00:00 6.8 17 Noroeste 23 Norte 0 -- -- 88
2018-01-08 05:00:00 6.9 14 Norte 21 Noroeste 0 -- -- 90
2018-01-08 04:00:00 6.8 4 Noroeste 23 Noroeste 0 -- -- 91
2018-01-08 03:00:00 7.5 13 Noroeste 22 Noroeste 0 -- -- 90
2018-01-08 02:00:00 8.2 13 Noroeste 18 Noroeste 0 -- -- 89
2018-01-08 01:00:00 8.1 3 Norte 7 Norte 0 -- -- 91
2018-01-08 00:00:00 8 0 Calma 8 Sudoeste 0 -- -- 91
2018-01-07 23:00:00 8.6 4 Sur 16 Noroeste 0 -- -- 85
2018-01-07 22:00:00 9.1 7 Oeste 20 Sudoeste 0 -- -- 86
2018-01-07 21:00:00 9.7 7 Oeste 28 Noroeste 0 -- -- 87
2018-01-07 20:00:00 9.1 9 Oeste 30 Noroeste 0.2 -- -- 94
2018-01-07 19:00:00 8.6 23 Noroeste 34 Noroeste 1.2 -- -- 93
2018-01-07 18:00:00 8.7 11 Noroeste 27 Norte 0.6 -- -- 90
2018-01-07 17:00:00 9.3 13 Noroeste 37 Noroeste 0.2 -- -- 86
2018-01-07 16:00:00 8.8 10 Noroeste 27 Oeste 2.2 -- -- 91
2018-01-07 15:00:00 9.4 11 Oeste 35 Oeste 1.2 -- -- 88
2018-01-07 14:00:00 10.1 9 Oeste 27 Oeste 0.4 -- -- 90
2018-01-07 13:00:00 11 10 Sudoeste 24 Oeste 0.2 -- -- 90
2018-01-07 12:00:00 11.8 11 Oeste 30 Sur 0 -- -- 91
2018-01-07 11:00:00 13 12 Sudeste 24 Sudeste 0 -- -- 94
2018-01-07 10:00:00 11.7 5 Nordeste 9 Noroeste 0 -- -- 97
2018-01-07 09:00:00 11.5 4 Norte 17 Sudoeste 0.8 -- -- 97
2018-01-07 08:00:00 11.9 6 Noroeste 15 Sudoeste 9.4 -- -- 95
2018-01-07 07:00:00 13.6 8 Noroeste 13 Oeste 0.4 -- -- 83
2018-01-07 06:00:00 13.2 7 Sudoeste 13 Sudoeste 0 -- -- 89
2018-01-07 05:00:00 13.7 4 Este 9 Sudoeste 0 -- -- 93
2018-01-07 04:00:00 13.8 5 Sudoeste 13 Sudoeste 0 -- -- 94
2018-01-07 03:00:00 13.8 4 Este 18 Este 0 -- -- 96
2018-01-07 02:00:00 13.8 10 Este 31 Este 0 -- -- 94
2018-01-07 01:00:00 13.8 16 Este 32 Este 0 -- -- 94
2018-01-07 00:00:00 13.8 20 Este 34 Este 0 -- -- 94
2018-01-06 23:00:00 13.7 17 Este 35 Este 0 -- -- 94
2018-01-06 22:00:00 13.6 20 Nordeste 34 Este 0 -- -- 94
2018-01-06 21:00:00 13.6 22 Este 51 Este 0 -- -- 93
2018-01-06 20:00:00 13.6 21 Este 45 Este 0 -- -- 93
2018-01-06 19:00:00 13.4 25 Nordeste 41 Este 0 -- -- 93
2018-01-06 18:00:00 13.6 20 Este 35 Nordeste 0 -- -- 93
2018-01-06 17:00:00 13.8 17 Nordeste 27 Nordeste 0 -- -- 91
2018-01-06 16:00:00 14.2 10 Este 23 Este 0 -- -- 88
2018-01-06 15:00:00 14.5 8 Este 17 Este 0 -- -- 86
2018-01-06 14:00:00 14.9 8 Este 17 Este 0 -- -- 83
2018-01-06 13:00:00 14.7 8 Nordeste 13 Este 0 -- -- 83
2018-01-06 12:00:00 14 6 Este 12 Este 0 -- -- 84
2018-01-06 11:00:00 14.2 4 Nordeste 8 Este 0 -- -- 75
2018-01-06 10:00:00 12.9 4 Nordeste 7 Este 0 -- -- 79
2018-01-06 09:00:00 10.1 5 Noroeste 7 Noroeste 0 -- -- 83
2018-01-06 08:00:00 9.6 3 Norte 7 Nordeste 0 -- -- 83
2018-01-06 07:00:00 9.6 3 Norte 6 Este 0 -- -- 82
2018-01-06 06:00:00 9.9 4 Este 9 Noroeste 0 -- -- 78
2018-01-06 05:00:00 9.7 3 Norte 8 Noroeste 0 -- -- 72
2018-01-06 04:00:00 9.9 0 Calma 3 Norte 0 -- -- 68
2018-01-06 03:00:00 10.3 0 Calma 5 Sudoeste 0 -- -- 68
2018-01-06 02:00:00 10.6 3 Sudoeste 6 Noroeste 0 -- -- 68
2018-01-06 01:00:00 11.3 0 Calma 8 Nordeste 0 -- -- 69
2018-01-06 00:00:00 13.1 5 Sudoeste 15 Oeste 0 -- -- 57
2018-01-05 23:00:00 12.4 5 Oeste 10 Oeste 0 -- -- 59
2018-01-05 22:00:00 13.6 6 Oeste 15 Sudoeste 0 -- -- 56
2018-01-05 21:00:00 14.8 8 Oeste 21 Noroeste 0 -- -- 52
2018-01-05 20:00:00 15.1 7 Noroeste 18 Oeste 0 -- -- 51
2018-01-05 19:00:00 14.9 7 Oeste 17 Oeste 0 -- -- 53
2018-01-05 18:00:00 15.3 8 Oeste 26 Sudoeste 0 -- -- 57
2018-01-05 17:00:00 15.8 14 Oeste 33 Oeste 0 -- -- 65
2018-01-05 16:00:00 15.9 13 Sudoeste 42 Sur 0 -- -- 65
2018-01-05 15:00:00 17.9 14 Sudoeste 54 Oeste 0 -- -- 52
2018-01-05 14:00:00 19 16 Sudoeste 56 Sudoeste 0 -- -- 46
2018-01-05 13:00:00 18.9 23 Sudoeste 52 Oeste 0 -- -- 45
2018-01-05 12:00:00 18.7 17 Sudoeste 36 Oeste 0 -- -- 45
2018-01-05 11:00:00 16.5 9 Sudoeste 27 Oeste 0 -- -- 55
2018-01-05 10:00:00 13.9 9 Oeste 25 Oeste 0 -- -- 62
2018-01-05 09:00:00 11.8 13 Noroeste 24 Noroeste 0 -- -- 69
2018-01-05 08:00:00 11.4 9 Oeste 15 Oeste 0 -- -- 72
2018-01-05 07:00:00 11.9 12 Noroeste 18 Noroeste 0 -- -- 72
2018-01-05 06:00:00 12.2 7 Oeste 15 Noroeste 0 -- -- 72
2018-01-05 05:00:00 12.3 9 Noroeste 15 Noroeste 0 -- -- 74
2018-01-05 04:00:00 12.2 10 Noroeste 21 Noroeste 0 -- -- 76
2018-01-05 03:00:00 12.4 3 Sudoeste 14 Noroeste 0 -- -- 79
2018-01-05 02:00:00 12.8 7 Nordeste 18 Noroeste 0 -- -- 81
2018-01-05 01:00:00 13.5 11 Noroeste 22 Noroeste 0 -- -- 76
2018-01-05 00:00:00 12.8 7 Oeste 12 Oeste 0 -- -- 81
2018-01-04 23:00:00 13.4 9 Norte 11 Norte 0 -- -- 78
2018-01-04 22:00:00 13.7 5 Norte 9 Norte 0 -- -- 80
2018-01-04 21:00:00 13.5 4 Nordeste 12 Noroeste 0 -- -- 80
2018-01-04 20:00:00 13.4 3 Noroeste 10 Norte 0 -- -- 84
2018-01-04 19:00:00 13.7 6 Nordeste 12 Nordeste 0 -- -- 87
2018-01-04 18:00:00 14 5 Este 13 Este 0 -- -- 88
2018-01-04 17:00:00 14.7 5 Nordeste 14 Nordeste 0 -- -- 87
2018-01-04 16:00:00 16.3 7 Este 12 Este 0 -- -- 75
2018-01-04 15:00:00 16.8 5 Nordeste 10 Sudeste 0 -- -- 72
2018-01-04 14:00:00 18.2 3 Sudoeste 12 Este 0 -- -- 62
2018-01-04 13:00:00 18 4 Nordeste 11 Este 0 -- -- 63
2018-01-04 12:00:00 18.6 4 Sur 17 Oeste 0 -- -- 61
2018-01-04 11:00:00 16.9 5 Sudoeste 25 Noroeste 0 -- -- 63
2018-01-04 10:00:00 15.4 12 Noroeste 18 Noroeste 0 -- -- 71
2018-01-04 09:00:00 12.4 6 Noroeste 9 Noroeste 0 -- -- 87
2018-01-04 08:00:00 12.1 3 Sudoeste 10 Oeste 0 -- -- 86
2018-01-04 07:00:00 12.1 3 Sudoeste 11 Noroeste 0 -- -- 81
2018-01-04 06:00:00 12.3 3 Noroeste 7 Noroeste 0 -- -- 81
2018-01-04 05:00:00 12.2 4 Norte 10 Noroeste 0 -- -- 79
2018-01-04 04:00:00 12.3 5 Noroeste 9 Noroeste 0 -- -- 80
2018-01-04 03:00:00 11.8 8 Noroeste 14 Noroeste 0 -- -- 76
2018-01-04 02:00:00 14.3 13 Norte 24 Norte 0 -- -- 67
2018-01-04 01:00:00 12.8 5 Norte 23 Noroeste 0 -- -- 74
2018-01-04 00:00:00 15.8 12 Noroeste 24 Noroeste 0 -- -- 60
2018-01-03 23:00:00 14.2 9 Noroeste 13 Noroeste 0 -- -- 70
2018-01-03 22:00:00 13.5 5 Norte 9 Oeste 0 -- -- 76
2018-01-03 21:00:00 13.9 6 Oeste 15 Sur 0 -- -- 78
2018-01-03 20:00:00 16.5 5 Norte 10 Norte 0 -- -- 62
2018-01-03 19:00:00 15.6 6 Norte 12 Nordeste 0 -- -- 63
2018-01-03 18:00:00 15.6 6 Nordeste 12 Nordeste 0 -- -- 67
2018-01-03 17:00:00 15.7 4 Nordeste 10 Sudoeste 0 -- -- 71
2018-01-03 16:00:00 15.4 6 Nordeste 16 Nordeste 0 -- -- 72
2018-01-03 15:00:00 15.9 10 Este 17 Este 0 -- -- 73
2018-01-03 14:00:00 19.3 4 Sudoeste 13 Sudoeste 0 -- -- 55
2018-01-03 13:00:00 19 7 Sudoeste 21 Noroeste 0 -- -- 56
2018-01-03 12:00:00 16.6 10 Noroeste 19 Norte 0 -- -- 60
2018-01-03 11:00:00 15.2 11 Noroeste 18 Noroeste 0 -- -- 63
2018-01-03 10:00:00 13.3 13 Noroeste 22 Noroeste 0 -- -- 68
2018-01-03 09:00:00 13 5 Nordeste 20 Norte 0 -- -- 71
2018-01-03 08:00:00 12.8 14 Noroeste 31 Noroeste 0 -- -- 69
2018-01-03 07:00:00 13 18 Noroeste 24 Noroeste 0 -- -- 68
2018-01-03 06:00:00 13.3 12 Noroeste 27 Noroeste 0 -- -- 67
2018-01-03 05:00:00 12.9 17 Noroeste 30 Noroeste 0 -- -- 68
2018-01-03 04:00:00 11.5 14 Noroeste 23 Noroeste 0 -- -- 69
2018-01-03 03:00:00 11.8 3 Sudeste 15 Noroeste 0 -- -- 75
2018-01-03 02:00:00 13.5 9 Noroeste 19 Noroeste 0 -- -- 66
2018-01-03 01:00:00 13.1 11 Noroeste 26 Noroeste 0 -- -- 66
2018-01-03 00:00:00 12.2 5 Oeste 21 Noroeste 0 -- -- 69
2018-01-02 23:00:00 11.7 11 Noroeste 22 Noroeste 0 -- -- 69
2018-01-02 22:00:00 12.1 5 Noroeste 12 Norte 0 -- -- 71
2018-01-02 21:00:00 11.4 5 Norte 8 Norte 0 -- -- 78
2018-01-02 20:00:00 11.2 5 Norte 9 Norte 0 -- -- 76
2018-01-02 19:00:00 11.2 3 Norte 6 Norte 0 -- -- 75
2018-01-02 18:00:00 12 5 Nordeste 10 Sur 0 -- -- 71
2018-01-02 17:00:00 13.9 5 Sur 12 Sudoeste 0 -- -- 65
2018-01-02 16:00:00 14.4 6 Sur 17 Sudoeste 0 -- -- 62
2018-01-02 15:00:00 15.7 8 Sudoeste 26 Sur 0 -- -- 59
2018-01-02 14:00:00 16.4 8 Sur 18 Sur 0 -- -- 59
2018-01-02 13:00:00 13.2 4 Norte 13 Noroeste 0 -- -- 65
2018-01-02 12:00:00 12.2 8 Noroeste 18 Noroeste 0 -- -- 64
2018-01-02 11:00:00 9.3 13 Noroeste 23 Noroeste 0 -- -- 71
2018-01-02 10:00:00 9.5 14 Norte 24 Norte 0 -- -- 73
2018-01-02 09:00:00 8.6 17 Norte 24 Noroeste 0 -- -- 75
2018-01-02 08:00:00 8.8 10 Norte 18 Noroeste 0 -- -- 73
2018-01-02 07:00:00 9.6 14 Noroeste 17 Noroeste 0 -- -- 68
2018-01-02 06:00:00 9.4 5 Oeste 10 Oeste 0 -- -- 73
2018-01-02 05:00:00 9.9 6 Sudoeste 17 Sudeste 0 -- -- 72
2018-01-02 04:00:00 11.3 11 Sur 25 Sur 0 -- -- 76
2018-01-02 03:00:00 10.6 4 Sur 15 Sur 0 -- -- 78
2018-01-02 02:00:00 10.1 4 Sur 10 Sur 0 -- -- 72
2018-01-02 01:00:00 10.1 3 Nordeste 9 Noroeste 0 -- -- 62
2018-01-02 00:00:00 11.2 4 Norte 27 Noroeste 0 -- -- 58
2018-01-01 23:00:00 12.7 11 Noroeste 28 Noroeste 0 -- -- 53
2018-01-01 22:00:00 13.5 7 Norte 30 Norte 0 -- -- 50
2018-01-01 21:00:00 13.4 10 Norte 27 Norte 0 -- -- 49
2018-01-01 20:00:00 14.2 6 Nordeste 46 Oeste 0 -- -- 45
2018-01-01 19:00:00 13.8 9 Sudoeste 48 Sur 0 -- -- 44
2018-01-01 18:00:00 13.4 28 Sudoeste 54 Sur 0 -- -- 53
2018-01-01 17:00:00 13.7 17 Sudoeste 39 Sudoeste 0 -- -- 43
2018-01-01 16:00:00 14.3 13 Sudoeste 48 Sudoeste 0 -- -- 41
2018-01-01 15:00:00 14.8 14 Sudoeste 40 Sur 0 -- -- 40
2018-01-01 14:00:00 13.9 23 Sudoeste 49 Oeste 0 -- -- 42
2018-01-01 13:00:00 14.9 6 Este 15 Sudeste 0 -- -- 48
2018-01-01 12:00:00 14.9 4 Sur 21 Sudoeste 0 -- -- 42
2018-01-01 11:00:00 12.7 6 Norte 31 Noroeste 0 -- -- 46
2018-01-01 10:00:00 11 17 Noroeste 30 Noroeste 0 -- -- 50
2018-01-01 09:00:00 10.4 12 Noroeste 19 Noroeste 0 -- -- 81
2018-01-01 08:00:00 10.3 10 Sudoeste 22 Sudoeste 0 -- -- 81
2018-01-01 07:00:00 10.2 9 Sur 19 Sudoeste 0 -- -- 86
2018-01-01 06:00:00 11.4 9 Sudoeste 17 Sur 0 -- -- 78
2018-01-01 05:00:00 11.6 13 Noroeste 21 Noroeste 0 -- -- 79
2018-01-01 04:00:00 11.8 4 Noroeste 18 Norte 0 -- -- 77
2018-01-01 03:00:00 12.6 11 Nordeste 23 Nordeste 0 -- -- 71
2018-01-01 02:00:00 12.9 12 Este 28 Este 0 -- -- 82
2018-01-01 01:00:00 13 15 Este 26 Este 0 -- -- 87
2018-01-01 00:00:00 12.9 9 Este 20 Este 0 -- -- 89
2017-12-31 23:00:00 12.4 7 Este 13 Este 0 -- -- 86
2017-12-31 22:00:00 12.3 4 Nordeste 18 Noroeste 0 -- -- 63
2017-12-31 21:00:00 13.8 10 Noroeste 18 Oeste 0 -- -- 55
2017-12-31 20:00:00 14.7 8 Oeste 34 Oeste 0 -- -- 53
2017-12-31 19:00:00 15 12 Oeste 55 Sudoeste 0 -- -- 52
2017-12-31 18:00:00 14.5 18 Sudoeste 40 Sudoeste 0 -- -- 65
2017-12-31 17:00:00 14.4 16 Sudoeste 43 Sudoeste 0 -- -- 77
2017-12-31 16:00:00 14.9 20 Sur 50 Sur 0 -- -- 76
2017-12-31 15:00:00 15.8 24 Sur 52 Sur 0 -- -- 69
2017-12-31 14:00:00 15.3 17 Sudoeste 41 Oeste 0 -- -- 67
2017-12-31 13:00:00 15.3 15 Sudoeste 35 Sudoeste 0 -- -- 68
2017-12-31 12:00:00 16.3 13 Sudoeste 40 Sudoeste 0 -- -- 62
2017-12-31 11:00:00 14.6 12 Sudoeste 29 Sudoeste 0 -- -- 72
2017-12-31 10:00:00 12.1 11 Oeste 24 Sudoeste 0 -- -- 76
2017-12-31 09:00:00 10.8 13 Sudoeste 28 Sudoeste 0 -- -- 78
2017-12-31 08:00:00 9.7 4 Sudoeste 8 Oeste 0 -- -- 85
2017-12-31 07:00:00 10.8 3 Sur 15 Noroeste 0 -- -- 78
2017-12-31 06:00:00 11.8 8 Noroeste 26 Noroeste 0 -- -- 73
2017-12-31 05:00:00 11.1 18 Noroeste 28 Noroeste 0 -- -- 74
2017-12-31 04:00:00 12 16 Noroeste 27 Noroeste 0 -- -- 72
2017-12-31 03:00:00 12.4 15 Noroeste 27 Noroeste 0 -- -- 70
2017-12-31 02:00:00 12.3 15 Noroeste 21 Noroeste 0 -- -- 71
2017-12-31 01:00:00 12.4 10 Noroeste 12 Noroeste 0 -- -- 70